createdAt,value
2023-02-13T00:00:40.622Z,99.99
2023-02-13T00:01:40.596Z,99.99
2023-02-13T00:02:40.705Z,99.99
2023-02-13T00:03:40.729Z,99.99
2023-02-13T00:04:40.498Z,99.99
2023-02-13T00:05:40.484Z,99.99
2023-02-13T00:06:40.434Z,99.99
2023-02-13T00:07:40.402Z,99.99
2023-02-13T00:08:40.413Z,99.99
2023-02-13T00:09:40.371Z,99.99
2023-02-13T00:10:40.333Z,99.99
2023-02-13T00:11:40.282Z,99.99
2023-02-13T00:12:40.256Z,99.99
2023-02-13T00:13:40.262Z,99.99
2023-02-13T00:14:40.184Z,99.99
2023-02-13T00:15:40.227Z,99.99
2023-02-13T00:16:40.145Z,99.99
2023-02-13T00:17:40.100Z,99.99
2023-02-13T00:18:40.061Z,99.99
2023-02-13T00:19:40.054Z,99.99
2023-02-13T00:20:40.015Z,99.99
2023-02-13T00:21:39.975Z,99.99
2023-02-13T00:22:39.934Z,99.99
2023-02-13T00:23:39.933Z,99.99
2023-02-13T00:24:39.910Z,99.99
2023-02-13T00:25:39.862Z,99.99
2023-02-13T00:26:39.852Z,99.99
2023-02-13T00:27:39.784Z,99.99
2023-02-13T00:28:39.908Z,99.99
2023-02-13T00:29:39.729Z,99.99
2023-02-13T00:30:39.708Z,99.99
2023-02-13T00:31:39.762Z,99.99
2023-02-13T00:32:39.628Z,99.99
2023-02-13T00:33:39.594Z,99.99
2023-02-13T00:34:39.572Z,99.99
2023-02-13T00:35:39.529Z,99.99
2023-02-13T00:36:39.521Z,99.99
2023-02-13T00:37:39.468Z,99.99
2023-02-13T00:38:39.452Z,99.99
2023-02-13T00:39:39.410Z,99.99
2023-02-13T00:40:39.404Z,99.99
2023-02-13T00:41:39.365Z,99.99
2023-02-13T00:42:39.364Z,99.99
2023-02-13T00:43:39.287Z,99.99
2023-02-13T00:44:39.260Z,99.99
2023-02-13T00:45:39.226Z,99.99
2023-02-13T00:46:39.380Z,99.99
2023-02-13T00:47:39.157Z,99.99
2023-02-13T00:48:39.144Z,99.99
2023-02-13T00:49:39.101Z,99.99
2023-02-13T00:50:39.063Z,99.99
2023-02-13T00:51:39.036Z,99.99
2023-02-13T00:52:39.004Z,99.99
2023-02-13T00:53:38.994Z,99.99
2023-02-13T00:54:38.949Z,99.99
2023-02-13T00:55:38.908Z,99.99
2023-02-13T00:56:38.933Z,99.99
2023-02-13T00:57:38.861Z,99.99
2023-02-13T00:58:39.037Z,99.99
2023-02-13T00:59:38.782Z,99.99
2023-02-13T01:00:38.759Z,99.99
2023-02-13T01:01:38.828Z,99.99
2023-02-13T01:02:38.709Z,99.99
2023-02-13T01:03:38.783Z,99.99
2023-02-13T01:04:38.639Z,99.99
2023-02-13T01:05:38.606Z,99.99
2023-02-13T01:06:38.581Z,99.99
2023-02-13T01:07:38.537Z,99.99
2023-02-13T01:08:38.522Z,99.99
2023-02-13T01:09:38.498Z,99.99
2023-02-13T01:10:38.454Z,99.99
2023-02-13T01:11:38.419Z,99.99
2023-02-13T01:12:38.417Z,99.99
2023-02-13T01:13:38.368Z,99.99
2023-02-13T01:14:38.398Z,99.99
2023-02-13T01:15:38.133Z,99.99
2023-02-13T01:16:38.264Z,99.99
2023-02-13T01:17:38.239Z,99.99
2023-02-13T01:18:38.215Z,99.99
2023-02-13T01:19:38.185Z,99.99
2023-02-13T01:20:38.140Z,99.99
2023-02-13T01:21:38.114Z,99.99
2023-02-13T01:22:38.089Z,99.99
2023-02-13T01:23:38.059Z,99.99
2023-02-13T01:24:38.060Z,99.99
2023-02-13T01:25:38.025Z,99.99
2023-02-13T01:26:37.979Z,99.99
2023-02-13T01:27:37.960Z,99.99
2023-02-13T01:28:38.100Z,99.99
2023-02-13T01:29:37.865Z,99.99
2023-02-13T01:30:37.940Z,99.99
2023-02-13T01:31:38.032Z,99.99
2023-02-13T01:32:37.781Z,99.99
2023-02-13T01:33:37.741Z,99.99
2023-02-13T01:34:37.713Z,99.99
2023-02-13T01:35:37.680Z,99.99
2023-02-13T01:36:37.645Z,99.99
2023-02-13T01:37:37.632Z,99.99
2023-02-13T01:38:37.590Z,99.99
2023-02-13T01:39:37.595Z,99.99
2023-02-13T01:40:37.523Z,99.99
2023-02-13T01:41:37.491Z,99.99
2023-02-13T01:42:37.460Z,99.99
2023-02-13T01:43:37.431Z,99.99
2023-02-13T01:44:37.429Z,99.99
2023-02-13T01:45:37.374Z,99.99
2023-02-13T01:46:37.511Z,99.99
2023-02-13T01:47:37.308Z,99.99
2023-02-13T01:48:37.313Z,99.99
2023-02-13T01:49:37.242Z,99.99
2023-02-13T01:50:37.211Z,99.99
2023-02-13T01:51:37.184Z,99.99
2023-02-13T01:52:37.144Z,99.99
2023-02-13T01:53:37.128Z,99.99
2023-02-13T01:54:37.083Z,99.99
2023-02-13T01:55:37.061Z,99.99
2023-02-13T01:56:37.029Z,99.99
2023-02-13T01:57:37.000Z,99.99
2023-02-13T01:58:36.964Z,99.99
2023-02-13T01:59:36.936Z,99.99
2023-02-13T02:00:36.927Z,99.99
2023-02-13T02:01:37.028Z,99.99
2023-02-13T02:02:36.929Z,99.99
2023-02-13T02:03:36.831Z,99.99
2023-02-13T02:04:36.786Z,99.99
2023-02-13T02:05:36.748Z,99.99
2023-02-13T02:06:36.734Z,99.99
2023-02-13T02:07:36.697Z,99.99
2023-02-13T02:08:36.668Z,99.99
2023-02-13T02:09:36.629Z,99.99
2023-02-13T02:10:36.595Z,99.99
2023-02-13T02:11:36.578Z,99.99
2023-02-13T02:12:36.536Z,99.99
2023-02-13T02:13:36.504Z,99.99
2023-02-13T02:14:36.485Z,99.99
2023-02-13T02:15:36.446Z,99.99
2023-02-13T02:16:36.475Z,99.99
2023-02-13T02:17:36.136Z,99.99
2023-02-13T02:18:36.383Z,99.99
2023-02-13T02:19:36.331Z,99.99
2023-02-13T02:20:36.301Z,99.99
2023-02-13T02:21:36.286Z,99.99
2023-02-13T02:22:36.237Z,99.99
2023-02-13T02:23:36.207Z,99.99
2023-02-13T02:24:36.168Z,99.99
2023-02-13T02:25:36.134Z,99.99
2023-02-13T02:26:36.105Z,99.99
2023-02-13T02:27:36.074Z,99.99
2023-02-13T02:28:36.130Z,99.99
2023-02-13T02:29:36.012Z,99.99
2023-02-13T02:30:36.112Z,99.99
2023-02-13T02:31:36.056Z,99.99
2023-02-13T02:32:35.960Z,99.99
2023-02-13T02:33:35.900Z,99.99
2023-02-13T02:34:35.904Z,99.99
2023-02-13T02:35:35.835Z,99.99
2023-02-13T02:36:35.820Z,99.99
2023-02-13T02:37:35.771Z,99.99
2023-02-13T02:38:35.741Z,99.99
2023-02-13T02:39:35.717Z,99.99
2023-02-13T02:40:35.685Z,99.99
2023-02-13T02:41:35.665Z,99.99
2023-02-13T02:42:35.612Z,99.99
2023-02-13T02:43:35.581Z,99.99
2023-02-13T02:44:35.558Z,99.99
2023-02-13T02:45:35.517Z,99.99
2023-02-13T02:46:35.628Z,99.99
2023-02-13T02:47:35.464Z,99.99
2023-02-13T02:48:35.458Z,99.99
2023-02-13T02:49:35.392Z,99.99
2023-02-13T02:50:35.402Z,99.99
2023-02-13T02:51:35.326Z,99.99
2023-02-13T02:52:35.305Z,99.99
2023-02-13T02:53:35.287Z,99.99
2023-02-13T02:54:35.244Z,99.99
2023-02-13T02:55:35.206Z,99.99
2023-02-13T02:56:35.180Z,99.99
2023-02-13T02:57:35.148Z,99.99
2023-02-13T02:58:35.119Z,99.99
2023-02-13T02:59:35.110Z,99.99
2023-02-13T03:00:35.183Z,99.99
2023-02-13T03:01:35.020Z,99.99
2023-02-13T03:02:34.997Z,99.99
2023-02-13T03:03:34.962Z,99.99
2023-02-13T03:04:35.052Z,99.99
2023-02-13T03:05:34.957Z,99.99
2023-02-13T03:06:34.891Z,99.99
2023-02-13T03:07:34.837Z,99.99
2023-02-13T03:08:34.800Z,99.99
2023-02-13T03:09:34.773Z,99.99
2023-02-13T03:10:34.743Z,99.99
2023-02-13T03:11:34.710Z,99.99
2023-02-13T03:12:34.691Z,99.99
2023-02-13T03:13:34.650Z,99.99
2023-02-13T03:14:34.621Z,99.99
2023-02-13T03:15:34.593Z,99.99
2023-02-13T03:16:34.675Z,99.99
2023-02-13T03:17:34.542Z,99.99
2023-02-13T03:18:34.488Z,99.99
2023-02-13T03:19:34.464Z,99.99
2023-02-13T03:20:34.462Z,99.99
2023-02-13T03:21:34.416Z,99.99
2023-02-13T03:22:34.394Z,99.99
2023-02-13T03:23:34.097Z,99.99
2023-02-13T03:24:34.308Z,99.99
2023-02-13T03:25:34.555Z,99.99
2023-02-13T03:26:34.249Z,99.99
2023-02-13T03:27:34.215Z,99.99
2023-02-13T03:28:34.278Z,99.99
2023-02-13T03:29:34.153Z,99.99
2023-02-13T03:30:34.166Z,99.99
2023-02-13T03:31:34.235Z,99.99
2023-02-13T03:32:34.064Z,99.99
2023-02-13T03:33:34.031Z,99.99
2023-02-13T03:34:33.999Z,99.99
2023-02-13T03:35:33.968Z,99.99
2023-02-13T03:36:33.734Z,99.99
2023-02-13T03:37:33.904Z,99.99
2023-02-13T03:38:33.903Z,99.99
2023-02-13T03:39:33.845Z,99.99
2023-02-13T03:40:33.828Z,99.99
2023-02-13T03:41:33.782Z,99.99
2023-02-13T03:42:33.744Z,99.99
2023-02-13T03:43:33.715Z,99.99
2023-02-13T03:44:33.699Z,99.99
2023-02-13T03:45:33.683Z,99.99
2023-02-13T03:46:33.626Z,99.99
2023-02-13T03:47:33.594Z,99.99
2023-02-13T03:48:33.559Z,99.99
2023-02-13T03:49:33.528Z,99.99
2023-02-13T03:50:33.500Z,99.99
2023-02-13T03:51:33.466Z,99.99
2023-02-13T03:52:33.463Z,99.99
2023-02-13T03:53:33.423Z,99.99
2023-02-13T03:54:33.425Z,99.99
2023-02-13T03:55:33.348Z,99.99
2023-02-13T03:56:33.310Z,99.99
2023-02-13T03:57:33.279Z,99.99
2023-02-13T03:58:33.250Z,99.99
2023-02-13T03:59:33.224Z,99.99
2023-02-13T04:00:33.200Z,99.99
2023-02-13T04:01:33.266Z,99.99
2023-02-13T04:02:33.213Z,99.99
2023-02-13T04:03:33.106Z,99.99
2023-02-13T04:04:33.070Z,99.99
2023-02-13T04:05:33.033Z,99.99
2023-02-13T04:06:33.009Z,99.99
2023-02-13T04:07:33.187Z,99.99
2023-02-13T04:08:32.980Z,99.99
2023-02-13T04:09:32.919Z,99.99
2023-02-13T04:10:32.906Z,99.99
2023-02-13T04:11:32.867Z,99.99
2023-02-13T04:12:32.579Z,99.99
2023-02-13T04:13:32.797Z,99.99
2023-02-13T04:14:32.752Z,99.99
2023-02-13T04:15:32.734Z,99.99
2023-02-13T04:16:32.814Z,99.99
2023-02-13T04:17:32.666Z,99.99
2023-02-13T04:18:32.636Z,99.99
2023-02-13T04:19:32.587Z,99.99
2023-02-13T04:20:32.581Z,99.99
2023-02-13T04:21:32.529Z,99.99
2023-02-13T04:22:32.498Z,99.99
2023-02-13T04:23:32.497Z,99.99
2023-02-13T04:24:32.484Z,99.99
2023-02-13T04:25:32.401Z,99.99
2023-02-13T04:26:32.403Z,99.99
2023-02-13T04:27:32.345Z,99.99
2023-02-13T04:28:32.507Z,99.99
2023-02-13T04:29:32.279Z,99.99
2023-02-13T04:30:32.303Z,99.99
2023-02-13T04:31:32.547Z,99.99
2023-02-13T04:32:32.192Z,99.99
2023-02-13T04:33:32.175Z,99.99
2023-02-13T04:34:32.127Z,99.88
2023-02-13T04:35:32.101Z,99.99
2023-02-13T04:36:32.076Z,99.99
2023-02-13T04:37:32.024Z,99.99
2023-02-13T04:38:32.000Z,99.99
2023-02-13T04:39:31.974Z,99.99
2023-02-13T04:40:31.977Z,99.99
2023-02-13T04:41:31.926Z,99.99
2023-02-13T04:42:31.914Z,99.99
2023-02-13T04:43:31.907Z,99.99
2023-02-13T04:44:31.810Z,99.99
2023-02-13T04:45:31.817Z,99.99
2023-02-13T04:46:31.745Z,99.99
2023-02-13T04:47:31.716Z,99.99
2023-02-13T04:48:31.686Z,99.99
2023-02-13T04:49:31.663Z,99.99
2023-02-13T04:50:31.627Z,99.99
2023-02-13T04:51:31.600Z,99.99
2023-02-13T04:52:31.556Z,99.99
2023-02-13T04:53:31.531Z,99.99
2023-02-13T04:54:31.498Z,99.99
2023-02-13T04:55:31.476Z,99.99
2023-02-13T04:56:31.464Z,99.99
2023-02-13T04:57:31.406Z,99.99
2023-02-13T04:58:31.409Z,99.99
2023-02-13T04:59:31.353Z,99.99
2023-02-13T05:00:31.483Z,99.99
2023-02-13T05:01:31.419Z,99.99
2023-02-13T05:02:31.392Z,99.99
2023-02-13T05:03:31.217Z,99.99
2023-02-13T05:04:31.381Z,99.99
2023-02-13T05:05:31.161Z,99.99
2023-02-13T05:06:31.123Z,99.99
2023-02-13T05:07:31.089Z,99.99
2023-02-13T05:08:31.136Z,99.99
2023-02-13T05:09:31.029Z,99.99
2023-02-13T05:10:31.001Z,99.99
2023-02-13T05:11:30.965Z,99.99
2023-02-13T05:12:30.981Z,99.99
2023-02-13T05:13:30.909Z,99.99
2023-02-13T05:14:30.894Z,99.99
2023-02-13T05:15:30.962Z,99.99
2023-02-13T05:16:30.802Z,99.99
2023-02-13T05:17:30.875Z,99.99
2023-02-13T05:18:30.742Z,99.99
2023-02-13T05:19:30.723Z,99.99
2023-02-13T05:20:30.687Z,99.99
2023-02-13T05:21:30.660Z,99.99
2023-02-13T05:22:30.615Z,99.99
2023-02-13T05:23:30.591Z,99.99
2023-02-13T05:24:30.598Z,99.99
2023-02-13T05:25:30.525Z,99.99
2023-02-13T05:26:30.509Z,99.99
2023-02-13T05:27:30.468Z,99.99
2023-02-13T05:28:30.698Z,99.99
2023-02-13T05:29:30.399Z,99.99
2023-02-13T05:30:30.393Z,99.99
2023-02-13T05:31:30.641Z,99.99
2023-02-13T05:32:30.308Z,99.99
2023-02-13T05:33:30.272Z,99.99
2023-02-13T05:34:30.245Z,99.99
2023-02-13T05:35:30.212Z,99.99
2023-02-13T05:36:30.190Z,99.99
2023-02-13T05:37:30.151Z,99.99
2023-02-13T05:38:30.127Z,99.99
2023-02-13T05:39:30.091Z,99.99
2023-02-13T05:40:30.066Z,99.99
2023-02-13T05:41:30.031Z,99.99
2023-02-13T05:42:29.995Z,99.99
2023-02-13T05:43:29.954Z,99.99
2023-02-13T05:44:29.966Z,99.99
2023-02-13T05:45:29.896Z,99.99
2023-02-13T05:46:30.031Z,99.99
2023-02-13T05:47:29.834Z,99.99
2023-02-13T05:48:29.806Z,99.99
2023-02-13T05:49:29.782Z,99.99
2023-02-13T05:50:29.747Z,99.99
2023-02-13T05:51:29.713Z,99.99
2023-02-13T05:52:29.682Z,99.99
2023-02-13T05:53:29.665Z,99.99
2023-02-13T05:54:29.624Z,99.99
2023-02-13T05:55:29.583Z,99.99
2023-02-13T05:56:29.562Z,99.99
2023-02-13T05:57:29.518Z,99.99
2023-02-13T05:58:29.504Z,99.99
2023-02-13T05:59:29.455Z,99.99
2023-02-13T06:00:29.518Z,99.99
2023-02-13T06:01:29.395Z,99.99
2023-02-13T06:02:29.504Z,99.99
2023-02-13T06:03:29.497Z,99.99
2023-02-13T06:04:29.303Z,99.99
2023-02-13T06:05:29.268Z,99.99
2023-02-13T06:06:29.252Z,99.99
2023-02-13T06:07:29.200Z,99.99
2023-02-13T06:08:29.177Z,99.99
2023-02-13T06:09:29.134Z,99.99
2023-02-13T06:10:29.105Z,99.99
2023-02-13T06:11:29.085Z,99.99
2023-02-13T06:12:29.041Z,99.99
2023-02-13T06:13:29.027Z,99.99
2023-02-13T06:14:28.978Z,99.99
2023-02-13T06:15:28.941Z,99.99
2023-02-13T06:16:29.217Z,99.99
2023-02-13T06:17:28.878Z,99.99
2023-02-13T06:18:28.946Z,99.99
2023-02-13T06:19:28.810Z,99.99
2023-02-13T06:20:28.812Z,99.99
2023-02-13T06:21:28.752Z,99.99
2023-02-13T06:22:28.724Z,99.99
2023-02-13T06:23:28.691Z,99.99
2023-02-13T06:24:28.657Z,99.99
2023-02-13T06:25:28.627Z,99.99
2023-02-13T06:26:28.632Z,99.99
2023-02-13T06:27:28.569Z,99.99
2023-02-13T06:28:28.579Z,99.99
2023-02-13T06:29:28.502Z,99.99
2023-02-13T06:30:28.505Z,99.99
2023-02-13T06:31:28.909Z,99.99
2023-02-13T06:32:28.438Z,99.99
2023-02-13T06:33:28.385Z,99.99
2023-02-13T06:34:28.371Z,99.99
2023-02-13T06:35:28.317Z,99.99
2023-02-13T06:36:28.275Z,99.99
2023-02-13T06:37:28.242Z,99.99
2023-02-13T06:38:28.230Z,99.99
2023-02-13T06:39:28.191Z,99.99
2023-02-13T06:40:28.154Z,99.99
2023-02-13T06:41:28.125Z,99.99
2023-02-13T06:42:28.086Z,99.99
2023-02-13T06:43:28.057Z,99.99
2023-02-13T06:44:28.015Z,99.99
2023-02-13T06:45:28.029Z,99.99
2023-02-13T06:46:28.180Z,99.99
2023-02-13T06:47:27.941Z,99.99
2023-02-13T06:48:27.931Z,99.99
2023-02-13T06:49:27.856Z,99.99
2023-02-13T06:50:27.900Z,99.99
2023-02-13T06:51:27.808Z,99.99
2023-02-13T06:52:27.760Z,99.99
2023-02-13T06:53:27.726Z,99.99
2023-02-13T06:54:48.191Z,99.99
2023-02-13T06:55:27.663Z,99.99
2023-02-13T06:56:27.628Z,99.99
2023-02-13T06:57:27.618Z,99.99
2023-02-13T06:58:27.594Z,99.99
2023-02-13T06:59:27.530Z,99.99
2023-02-13T07:00:29.635Z,99.99
2023-02-13T07:01:27.436Z,99.99
2023-02-13T07:02:27.691Z,99.99
2023-02-13T07:03:27.420Z,99.99
2023-02-13T07:04:27.508Z,99.99
2023-02-13T07:05:27.345Z,99.99
2023-02-13T07:06:27.326Z,99.99
2023-02-13T07:07:27.269Z,99.99
2023-02-13T07:08:27.237Z,99.99
2023-02-13T07:09:27.298Z,99.99
2023-02-13T07:10:27.166Z,99.99
2023-02-13T07:11:27.138Z,99.99
2023-02-13T07:12:27.114Z,99.99
2023-02-13T07:13:27.072Z,99.99
2023-02-13T07:14:27.044Z,99.99
2023-02-13T07:15:27.013Z,99.99
2023-02-13T07:16:27.152Z,99.99
2023-02-13T07:17:26.944Z,99.99
2023-02-13T07:18:26.912Z,99.99
2023-02-13T07:19:26.915Z,99.99
2023-02-13T07:20:26.868Z,99.99
2023-02-13T07:21:26.806Z,99.99
2023-02-13T07:22:26.829Z,99.99
2023-02-13T07:23:26.740Z,99.99
2023-02-13T07:24:26.718Z,99.99
2023-02-13T07:25:26.716Z,99.99
2023-02-13T07:26:26.654Z,99.99
2023-02-13T07:27:26.617Z,99.99
2023-02-13T07:28:26.583Z,99.99
2023-02-13T07:29:26.548Z,99.99
2023-02-13T07:30:26.785Z,99.99
2023-02-13T07:31:26.672Z,99.99
2023-02-13T07:32:26.450Z,99.99
2023-02-13T07:33:26.430Z,99.99
2023-02-13T07:34:26.396Z,99.99
2023-02-13T07:35:26.357Z,99.99
2023-02-13T07:36:26.353Z,99.99
2023-02-13T07:37:26.293Z,99.99
2023-02-13T07:38:26.287Z,99.99
2023-02-13T07:39:26.228Z,99.99
2023-02-13T07:40:26.206Z,99.99
2023-02-13T07:41:26.161Z,99.99
2023-02-13T07:42:26.143Z,99.99
2023-02-13T07:43:26.093Z,99.99
2023-02-13T07:44:26.059Z,99.99
2023-02-13T07:45:26.069Z,99.99
2023-02-13T07:46:26.052Z,99.99
2023-02-13T07:47:25.964Z,99.99
2023-02-13T07:48:25.933Z,99.99
2023-02-13T07:49:25.902Z,99.99
2023-02-13T07:50:25.879Z,99.99
2023-02-13T07:51:25.847Z,99.99
2023-02-13T07:52:25.850Z,99.99
2023-02-13T07:53:25.767Z,99.99
2023-02-13T07:54:25.769Z,99.99
2023-02-13T07:55:25.708Z,99.99
2023-02-13T07:56:25.684Z,99.99
2023-02-13T07:57:25.645Z,99.99
2023-02-13T07:58:25.649Z,99.99
2023-02-13T07:59:25.595Z,99.99
2023-02-13T08:00:25.546Z,99.99
2023-02-13T08:01:25.684Z,99.99
2023-02-13T08:02:25.484Z,99.99
2023-02-13T08:03:25.460Z,99.99
2023-02-13T08:04:28.430Z,99.99
2023-02-13T08:05:25.385Z,99.99
2023-02-13T08:06:25.364Z,99.99
2023-02-13T08:07:25.325Z,99.99
2023-02-13T08:08:25.316Z,99.99
2023-02-13T08:09:25.023Z,99.99
2023-02-13T08:10:25.249Z,99.99
2023-02-13T08:11:25.202Z,99.99
2023-02-13T08:12:25.155Z,99.99
2023-02-13T08:13:25.152Z,99.99
2023-02-13T08:14:25.109Z,99.99
2023-02-13T08:15:25.068Z,99.99
2023-02-13T08:16:25.175Z,99.99
2023-02-13T08:17:25.000Z,99.99
2023-02-13T08:18:24.976Z,99.99
2023-02-13T08:19:24.936Z,99.99
2023-02-13T08:20:24.905Z,99.99
2023-02-13T08:21:24.868Z,99.99
2023-02-13T08:22:25.011Z,99.99
2023-02-13T08:23:24.633Z,99.99
2023-02-13T08:24:24.829Z,99.99
2023-02-13T08:25:24.736Z,99.99
2023-02-13T08:26:24.761Z,99.99
2023-02-13T08:27:24.680Z,99.99
2023-02-13T08:28:24.733Z,99.99
2023-02-13T08:29:24.601Z,99.99
2023-02-13T08:30:24.329Z,99.99
2023-02-13T08:31:24.775Z,99.99
2023-02-13T08:32:24.780Z,99.99
2023-02-13T08:33:24.478Z,99.99
2023-02-13T08:34:24.495Z,99.99
2023-02-13T08:35:24.406Z,99.99
2023-02-13T08:36:24.373Z,99.99
2023-02-13T08:37:24.355Z,99.99
2023-02-13T08:38:24.304Z,99.99
2023-02-13T08:39:24.279Z,99.99
2023-02-13T08:40:27.223Z,99.99
2023-02-13T08:41:24.227Z,99.99
2023-02-13T08:42:24.219Z,99.99
2023-02-13T08:43:24.159Z,99.99
2023-02-13T08:44:23.907Z,99.99
2023-02-13T08:45:24.089Z,99.99
2023-02-13T08:46:24.267Z,99.99
2023-02-13T08:47:24.025Z,99.99
2023-02-13T08:48:23.998Z,99.99
2023-02-13T08:49:23.960Z,99.99
2023-02-13T08:50:23.928Z,99.99
2023-02-13T08:51:23.929Z,99.99
2023-02-13T08:52:23.863Z,99.99
2023-02-13T08:53:23.835Z,99.99
2023-02-13T08:54:23.793Z,99.99
2023-02-13T08:55:23.765Z,99.99
2023-02-13T08:56:23.766Z,99.99
2023-02-13T08:57:23.700Z,99.99
2023-02-13T08:58:23.722Z,99.99
2023-02-13T08:59:23.634Z,99.99
2023-02-13T09:00:23.605Z,99.99
2023-02-13T09:01:23.721Z,99.99
2023-02-13T09:02:23.696Z,99.99
2023-02-13T09:03:23.515Z,99.99
2023-02-13T09:04:23.484Z,99.99
2023-02-13T09:05:23.480Z,99.99
2023-02-13T09:06:23.180Z,99.99
2023-02-13T09:07:23.393Z,99.99
2023-02-13T09:08:23.364Z,99.99
2023-02-13T09:09:23.315Z,99.99
2023-02-13T09:10:23.284Z,99.99
2023-02-13T09:11:23.335Z,99.99
2023-02-13T09:12:23.257Z,99.99
2023-02-13T09:13:23.190Z,99.99
2023-02-13T09:14:24.949Z,99.99
2023-02-13T09:15:23.136Z,99.99
2023-02-13T09:16:22.992Z,99.99
2023-02-13T09:17:23.150Z,99.99
2023-02-13T09:18:23.035Z,99.99
2023-02-13T09:19:23.050Z,99.99
2023-02-13T09:20:22.977Z,99.99
2023-02-13T09:21:22.950Z,99.99
2023-02-13T09:22:22.914Z,99.99
2023-02-13T09:23:22.881Z,99.99
2023-02-13T09:24:22.868Z,99.99
2023-02-13T09:25:22.819Z,99.99
2023-02-13T09:26:23.342Z,99.99
2023-02-13T09:27:22.757Z,99.99
2023-02-13T09:28:22.633Z,99.99
2023-02-13T09:29:22.693Z,99.99
2023-02-13T09:30:22.691Z,99.99
2023-02-13T09:31:22.980Z,99.99
2023-02-13T09:32:22.598Z,99.99
2023-02-13T09:33:22.564Z,99.99
2023-02-13T09:34:22.541Z,99.99
2023-02-13T09:35:22.524Z,99.99
2023-02-13T09:36:22.655Z,99.99
2023-02-13T09:37:22.437Z,99.99
2023-02-13T09:38:22.167Z,99.99
2023-02-13T09:39:22.390Z,99.99
2023-02-13T09:40:22.400Z,99.99
2023-02-13T09:41:22.310Z,99.99
2023-02-13T09:42:22.054Z,99.99
2023-02-13T09:43:22.253Z,99.99
2023-02-13T09:44:22.258Z,99.99
2023-02-13T09:45:22.201Z,99.99
2023-02-13T09:46:22.268Z,99.99
2023-02-13T09:47:21.883Z,99.99
2023-02-13T09:48:22.092Z,99.99
2023-02-13T09:49:22.070Z,99.99
2023-02-13T09:50:22.075Z,99.99
2023-02-13T09:51:22.012Z,99.99
2023-02-13T09:52:21.971Z,99.99
2023-02-13T09:53:21.946Z,99.99
2023-02-13T09:54:21.918Z,99.99
2023-02-13T09:55:21.922Z,99.99
2023-02-13T09:56:21.838Z,99.99
2023-02-13T09:57:21.812Z,99.99
2023-02-13T09:58:21.780Z,99.99
2023-02-13T09:59:21.747Z,99.99
2023-02-13T10:00:21.763Z,99.99
2023-02-13T10:01:21.835Z,99.98
2023-02-13T10:02:21.678Z,99.88
2023-02-13T10:03:21.640Z,99.98
2023-02-13T10:04:21.371Z,99.69
2023-02-13T10:05:21.687Z,99.41
2023-02-13T10:06:21.532Z,98.65
2023-02-13T10:07:21.527Z,99.31
2023-02-13T10:08:21.479Z,98.74
2023-02-13T10:09:21.457Z,98.83
2023-02-13T10:10:21.452Z,98.83
2023-02-13T10:11:21.379Z,98.08
2023-02-13T10:12:21.345Z,98.55
2023-02-13T10:13:22.107Z,97.98
2023-02-13T10:14:21.289Z,98.17
2023-02-13T10:15:21.036Z,98.17
2023-02-13T10:16:21.361Z,97.6
2023-02-13T10:17:21.188Z,97.6
2023-02-13T10:18:21.194Z,97.41
2023-02-13T10:19:21.132Z,97.69
2023-02-13T10:20:21.104Z,96.98
2023-02-13T10:21:21.077Z,97.55
2023-02-13T10:22:21.047Z,97.46
2023-02-13T10:23:21.076Z,96.74
2023-02-13T10:24:20.730Z,96.51
2023-02-13T10:25:20.960Z,96.6
2023-02-13T10:26:22.630Z,96.03
2023-02-13T10:27:20.883Z,96.41
2023-02-13T10:28:20.951Z,95.75
2023-02-13T10:29:20.830Z,95.65
2023-02-13T10:30:20.789Z,95.46
2023-02-13T10:31:21.054Z,95.65
2023-02-13T10:32:21.138Z,95.27
2023-02-13T10:33:20.757Z,94.79
2023-02-13T10:34:20.707Z,94.89
2023-02-13T10:35:20.642Z,95.17
2023-02-13T10:36:20.383Z,95.08
2023-02-13T10:37:20.355Z,94.42
2023-02-13T10:38:20.581Z,94.51
2023-02-13T10:39:20.517Z,94.42
2023-02-13T10:40:20.494Z,94.13
2023-02-13T10:41:20.462Z,93.37
2023-02-13T10:42:20.425Z,93.55
2023-02-13T10:43:20.399Z,93.37
2023-02-13T10:44:20.396Z,93.65
2023-02-13T10:45:20.341Z,93.18
2023-02-13T10:46:20.385Z,93.51
2023-02-13T10:47:20.305Z,93.22
2023-02-13T10:48:20.282Z,92.94
2023-02-13T10:49:20.454Z,92.36
2023-02-13T10:50:20.225Z,92.18
2023-02-13T10:51:20.166Z,92.18
2023-02-13T10:52:20.144Z,92.46
2023-02-13T10:53:20.088Z,91.6
2023-02-13T10:54:20.077Z,90.94
2023-02-13T10:55:20.034Z,91.22
2023-02-13T10:56:20.017Z,91.03
2023-02-13T10:57:19.967Z,90.75
2023-02-13T10:58:19.708Z,90.65
2023-02-13T10:59:19.904Z,90.56
2023-02-13T11:00:19.763Z,90.46
2023-02-13T11:01:20.023Z,90.46
2023-02-13T11:02:19.821Z,90.56
2023-02-13T11:03:19.807Z,90.36
2023-02-13T11:04:19.944Z,90.08
2023-02-13T11:05:19.729Z,90.56
2023-02-13T11:06:19.756Z,89.7
2023-02-13T11:07:19.667Z,89.98
2023-02-13T11:08:19.648Z,89.61
2023-02-13T11:09:19.388Z,89.61
2023-02-13T11:10:19.712Z,89.51
2023-02-13T11:11:19.541Z,89.51
2023-02-13T11:12:19.516Z,89.51
2023-02-13T11:13:19.524Z,89.65
2023-02-13T11:14:19.452Z,89.32
2023-02-13T11:15:19.427Z,89.51
2023-02-13T11:16:19.494Z,89.07
2023-02-13T11:17:19.363Z,89.17
2023-02-13T11:18:21.111Z,88.98
2023-02-13T11:19:19.315Z,88.79
2023-02-13T11:20:19.478Z,89.07
2023-02-13T11:21:19.267Z,89.07
2023-02-13T11:22:19.273Z,88.98
2023-02-13T11:23:19.173Z,89.17
2023-02-13T11:24:19.147Z,88.41
2023-02-13T11:25:18.876Z,88.41
2023-02-13T11:26:19.112Z,87.46
2023-02-13T11:27:20.658Z,87.65
2023-02-13T11:28:19.162Z,87.74
2023-02-13T11:29:18.759Z,87.74
2023-02-13T11:30:18.965Z,87.55
2023-02-13T11:31:19.237Z,87.55
2023-02-13T11:32:19.337Z,87.65
2023-02-13T11:33:18.883Z,87.12
2023-02-13T11:34:18.874Z,86.26
2023-02-13T11:35:18.822Z,86.16
2023-02-13T11:36:18.818Z,86.51
2023-02-13T11:37:18.762Z,85.64
2023-02-13T11:38:18.768Z,86.03
2023-02-13T11:39:18.704Z,86.07
2023-02-13T11:40:18.676Z,86.03
2023-02-13T11:41:18.648Z,85.36
2023-02-13T11:42:18.615Z,85.84
2023-02-13T11:43:18.608Z,86.07
2023-02-13T11:44:18.564Z,85.78
2023-02-13T11:45:18.542Z,86.16
2023-02-13T11:46:19.712Z,85.41
2023-02-13T11:47:18.484Z,85.6
2023-02-13T11:48:18.446Z,85.21
2023-02-13T11:49:18.405Z,85.02
2023-02-13T11:50:18.380Z,84.74
2023-02-13T11:51:18.349Z,85.02
2023-02-13T11:52:18.358Z,84.74
2023-02-13T11:53:18.297Z,84.36
2023-02-13T11:54:18.297Z,85.12
2023-02-13T11:55:18.229Z,84.64
2023-02-13T11:56:18.264Z,84.55
2023-02-13T11:57:17.934Z,84.45
2023-02-13T11:58:18.328Z,84.36
2023-02-13T11:59:18.122Z,83.69
2023-02-13T12:00:18.101Z,83.5
2023-02-13T12:01:18.068Z,83.88
2023-02-13T12:02:18.224Z,83.88
2023-02-13T12:03:18.315Z,83.88
2023-02-13T12:04:18.071Z,83.5
2023-02-13T12:05:17.958Z,83.59
2023-02-13T12:06:18.028Z,83.69
2023-02-13T12:07:17.903Z,83.31
2023-02-13T12:08:17.898Z,83.59
2023-02-13T12:09:17.922Z,83.4
2023-02-13T12:10:17.830Z,83.12
2023-02-13T12:11:17.789Z,82.92
2023-02-13T12:12:17.742Z,82.83
2023-02-13T12:13:17.735Z,82.64
2023-02-13T12:14:17.677Z,82.97
2023-02-13T12:15:17.422Z,82.83
2023-02-13T12:16:17.508Z,82.59
2023-02-13T12:17:32.618Z,82.78
2023-02-13T12:18:17.578Z,82.68
2023-02-13T12:19:17.543Z,82.3
2023-02-13T12:20:17.950Z,82.68
2023-02-13T12:21:17.480Z,82.3
2023-02-13T12:22:17.468Z,82.68
2023-02-13T12:23:17.416Z,82.78
2023-02-13T12:24:17.424Z,82.59
2023-02-13T12:25:17.359Z,82.59
2023-02-13T12:26:17.362Z,81.63
2023-02-13T12:27:17.432Z,81.63
2023-02-13T12:28:17.526Z,81.73
2023-02-13T12:29:17.350Z,81.73
2023-02-13T12:30:17.260Z,81.73
2023-02-13T12:31:17.243Z,82.2
2023-02-13T12:32:17.161Z,82.11
2023-02-13T12:33:17.132Z,81.73
2023-02-13T12:34:17.097Z,81.73
2023-02-13T12:35:17.062Z,81.82
2023-02-13T12:36:17.044Z,81.82
2023-02-13T12:37:17.019Z,81.06
2023-02-13T12:38:16.981Z,81.06
2023-02-13T12:39:16.949Z,81.15
2023-02-13T12:40:16.950Z,81.25
2023-02-13T12:41:16.888Z,81.2
2023-02-13T12:42:16.892Z,80.91
2023-02-13T12:43:16.827Z,80.53
2023-02-13T12:44:16.804Z,80.62
2023-02-13T12:45:16.771Z,80.81
2023-02-13T12:46:16.924Z,80.72
2023-02-13T12:47:16.716Z,80.72
2023-02-13T12:48:16.688Z,81.2
2023-02-13T12:49:16.665Z,80.72
2023-02-13T12:50:16.632Z,80.72
2023-02-13T12:51:16.616Z,80.81
2023-02-13T12:52:16.630Z,80.81
2023-02-13T12:53:16.547Z,80.81